の過去48時間の天気

Nizhnevartovsk

現在時刻: 5/28 08:28 +05 (5/28 03:28 UTC) 以下の時間は現地時間です。

過去48時間のMETAR気象情報
時間 風向 風速(m/s) 視程 気温(℃) 湿度(%) 気圧(hPa) 天気現象
28 08:00 西南西 2 10km以上 12 50 1023
28 07:30 不定 1 10km以上 12 58 1024
28 07:00 不定 1 10km以上 11 62 1024
28 06:30 静穏 0 10km以上 10 66 1024
28 06:00 静穏 0 10km以上 9 87 1024
28 05:30 静穏 0 10km以上 8 87 1024
28 05:00 静穏 0 10km以上 7 93 1024
28 04:30 静穏 0 10km以上 6 93 1024
28 04:00 静穏 0 10km以上 6 81 1024
28 03:30 静穏 0 10km以上 4 93 1024
28 03:00 静穏 0 10km以上 4 93 1025
28 02:30 東北東 1 10km以上 4 93 1025
28 02:00 静穏 0 10km以上 3 100 1025
28 01:30 不定 1 10km以上 3 100 1025
28 01:00 静穏 0 10km以上 3 93 1025
28 00:30 1 10km以上 3 93 1025
USNN 280300Z 25002MPS 180V290 CAVOK 12/02 Q1023 R21/0///65 NOSIG RMK QFE763
USNN 280230Z VRB01MPS CAVOK 12/04 Q1024 R21/0///65 NOSIG RMK QFE763
USNN 280200Z VRB01MPS CAVOK 11/04 Q1024 R21/0///65 NOSIG RMK QFE763
USNN 280130Z 00000MPS CAVOK 10/04 Q1024 R21/0///65 NOSIG RMK QFE763
USNN 280100Z 00000MPS CAVOK 09/07 Q1024 R21/0///65 NOSIG RMK QFE763
USNN 280030Z 00000MPS CAVOK 08/06 Q1024 R21/0///65 NOSIG RMK QFE763
USNN 280000Z 00000MPS CAVOK 07/06 Q1024 R21/0///65 NOSIG RMK QFE763
USNN 272330Z 00000MPS CAVOK 06/05 Q1024 R21/0///65 NOSIG RMK QFE763
USNN 272300Z 00000MPS CAVOK 06/03 Q1024 R03/0///65 NOSIG RMK QFE764
USNN 272230Z 00000MPS CAVOK 04/03 Q1024 R03/0///65 NOSIG RMK QFE764
USNN 272200Z 00000MPS CAVOK 04/03 Q1025 R03/0///65 NOSIG RMK QFE764
USNN 272130Z 06001MPS CAVOK 04/03 Q1025 R03/0///65 NOSIG RMK QFE764
USNN 272100Z 00000MPS CAVOK 03/03 Q1025 R03/0///65 NOSIG RMK QFE765
USNN 272030Z VRB01MPS CAVOK 03/03 Q1025 R03/0///65 NOSIG RMK QFE764
USNN 272000Z 00000MPS CAVOK 03/02 Q1025 R03/0///65 NOSIG RMK QFE764
USNN 271930Z 35001MPS CAVOK 03/02 Q1025 R03/0///65 NOSIG RMK QFE765